Time;durP1;ratioP1;P1;durP2;ratioP2;P2;SDS_P1;SDS_P2;PMS_P1;PMS_P2;Temp;Humidity;BMP_temperature;BMP_pressure;BME280_temperature;BME280_humidity;BME280_pressure;Samples;Min_cycle;Max_cycle;Signal;HPM_P1;HPM_P2
2021/09/08 00:01:34;;;;;;;13.88;7.80;;;16.40;84.00;;;;;;5075271;28;20055;-67
2021/09/08 00:04:00;;;;;;;11.88;7.10;;;16.40;83.20;;;;;;5075559;28;20036;-67
2021/09/08 00:06:27;;;;;;;13.18;7.25;;;16.30;82.60;;;;;;5075340;28;20029;-68
2021/09/08 00:08:53;;;;;;;9.90;7.40;;;16.30;83.50;;;;;;5075558;28;20449;-67
2021/09/08 00:11:19;;;;;;;17.00;7.60;;;16.20;81.70;;;;;;5057333;28;20409;-67
2021/09/08 00:13:46;;;;;;;17.83;7.95;;;16.20;82.20;;;;;;5075446;28;20035;-68
2021/09/08 00:16:13;;;;;;;12.13;7.63;;;16.10;82.80;;;;;;5075277;28;20086;-67
2021/09/08 00:18:38;;;;;;;14.73;8.13;;;16.00;82.10;;;;;;5057327;28;20116;-68
2021/09/08 00:21:04;;;;;;;16.33;8.57;;;16.00;81.90;;;;;;5075265;28;20111;-67
2021/09/08 00:23:30;;;;;;;16.65;7.93;;;15.90;81.70;;;;;;5075097;28;20502;-68
2021/09/08 00:25:56;;;;;;;22.52;7.90;;;15.90;81.90;;;;;;5075196;28;20036;-68
2021/09/08 00:28:22;;;;;;;17.13;8.20;;;15.90;81.90;;;;;;5057220;28;20483;-68
2021/09/08 00:30:48;;;;;;;13.93;8.73;;;15.90;82.40;;;;;;5075439;28;20036;-68
2021/09/08 00:33:14;;;;;;;15.73;7.70;;;15.80;82.90;;;;;;5075060;28;20027;-68
2021/09/08 00:35:40;;;;;;;13.35;7.13;;;15.70;82.50;;;;;;5074984;28;20032;-68
2021/09/08 00:38:12;;;;;;;16.80;8.10;;;15.70;82.30;;;;;;5074967;28;20487;-70
2021/09/08 00:40:39;;;;;;;17.38;7.55;;;15.70;82.40;;;;;;5075048;28;20135;-70
2021/09/08 00:43:05;;;;;;;15.45;7.35;;;15.60;82.70;;;;;;5074860;28;20513;-70
2021/09/08 00:45:31;;;;;;;12.02;7.50;;;15.60;84.60;;;;;;5074572;28;20116;-67
2021/09/08 00:47:57;;;;;;;18.65;7.38;;;15.60;83.90;;;;;;5074812;28;20457;-68
2021/09/08 00:50:23;;;;;;;16.25;8.35;;;15.60;84.10;;;;;;5074997;28;20056;-68
2021/09/08 00:52:49;;;;;;;10.85;7.90;;;15.60;84.10;;;;;;5074643;28;20020;-67
2021/09/08 00:55:15;;;;;;;14.25;7.05;;;15.60;84.40;;;;;;5074525;28;20085;-68
2021/09/08 00:57:45;;;;;;;11.40;7.18;;;15.60;84.00;;;;;;5056667;28;20494;-68
2021/09/08 01:00:11;;;;;;;17.75;7.32;;;15.60;83.60;;;;;;5074544;28;20091;-68
2021/09/08 01:02:42;;;;;;;19.20;8.48;;;15.60;83.20;;;;;;5073925;28;20113;-67
2021/09/08 01:05:10;;;;;;;16.23;8.65;;;15.50;83.20;;;;;;5074388;28;20028;-67
2021/09/08 01:07:36;;;;;;;19.33;8.63;;;15.50;83.60;;;;;;5056408;28;20052;-67
2021/09/08 01:10:02;;;;;;;13.02;7.93;;;15.30;84.10;;;;;;5056089;28;20035;-67
2021/09/08 01:12:28;;;;;;;15.25;7.35;;;15.20;84.10;;;;;;5056288;28;20029;-67
2021/09/08 01:14:55;;;;;;;12.32;7.18;;;15.20;83.90;;;;;;5074513;28;20119;-67
2021/09/08 01:17:21;;;;;;;13.93;7.07;;;15.10;84.50;;;;;;5073485;28;20122;-67
2021/09/08 01:19:47;;;;;;;14.95;6.55;;;15.10;84.70;;;;;;5074147;28;20052;-67
2021/09/08 01:22:13;;;;;;;15.07;6.60;;;15.00;85.00;;;;;;5074273;28;20453;-67
2021/09/08 01:24:42;;;;;;;12.57;6.13;;;15.00;85.30;;;;;;5074081;28;20477;-66
2021/09/08 01:27:08;;;;;;;14.23;6.63;;;15.00;86.00;;;;;;5073931;28;20129;-68
2021/09/08 01:29:34;;;;;;;10.27;6.20;;;15.00;84.80;;;;;;5073651;28;20108;-68
2021/09/08 01:32:00;;;;;;;13.07;6.25;;;15.00;84.30;;;;;;5073565;28;20114;-68
2021/09/08 01:34:27;;;;;;;14.65;6.97;;;14.90;84.40;;;;;;5073929;28;20052;-68
2021/09/08 01:36:53;;;;;;;14.13;6.28;;;14.80;84.50;;;;;;5073784;28;20064;-68
2021/09/08 01:39:19;;;;;;;16.85;8.07;;;14.70;85.10;;;;;;5073444;28;20020;-68
2021/09/08 01:41:47;;;;;;;13.10;6.22;;;14.70;85.60;;;;;;5073658;28;20033;-68
2021/09/08 01:44:21;;;;;;;11.07;6.93;;;14.60;85.60;;;;;;5055742;28;20028;-68
2021/09/08 01:46:52;;;;;;;17.73;7.18;;;14.60;86.30;;;;;;5073655;28;20119;-67
2021/09/08 01:49:18;;;;;;;17.63;6.53;;;14.60;87.20;;;;;;5073379;28;20528;-67
2021/09/08 01:51:54;;;;;;;12.68;6.47;;;14.60;87.90;;;;;;5073472;28;20116;-67
2021/09/08 01:54:20;;;;;;;12.77;7.25;;;14.60;86.90;;;;;;5073464;28;20028;-66
2021/09/08 01:56:46;;;;;;;15.70;6.93;;;14.60;86.80;;;;;;5055460;28;20123;-68
2021/09/08 01:59:12;;;;;;;14.40;7.65;;;14.70;86.40;;;;;;5073429;28;20108;-66
2021/09/08 02:01:37;;;;;;;12.98;6.88;;;14.70;86.10;;;;;;5073114;28;20056;-66
2021/09/08 02:04:03;;;;;;;18.58;7.22;;;14.70;86.00;;;;;;5055308;28;20366;-66
2021/09/08 02:06:29;;;;;;;15.25;7.15;;;14.60;86.10;;;;;;5055352;28;20033;-66
2021/09/08 02:09:00;;;;;;;17.45;7.13;;;14.60;86.20;;;;;;5073273;28;20082;-66
2021/09/08 02:11:27;;;;;;;13.70;7.28;;;14.60;87.90;;;;;;5073244;28;20033;-66
2021/09/08 02:13:53;;;;;;;10.77;5.90;;;14.60;88.30;;;;;;5073267;28;20043;-68
2021/09/08 02:16:21;;;;;;;14.85;6.35;;;14.60;87.90;;;;;;5072798;28;20385;-66
2021/09/08 02:18:51;;;;;;;11.85;6.03;;;14.60;88.90;;;;;;5073166;28;20129;-66
2021/09/08 02:21:17;;;;;;;16.15;8.18;;;14.60;89.10;;;;;;5073129;28;20029;-67
2021/09/08 02:23:44;;;;;;;14.02;7.63;;;14.60;89.10;;;;;;5073131;28;20033;-65
2021/09/08 02:26:10;;;;;;;18.63;7.63;;;14.50;88.50;;;;;;5054798;28;20028;-67
2021/09/08 02:28:36;;;;;;;15.05;7.95;;;14.50;88.00;;;;;;5054999;28;20583;-66
2021/09/08 02:31:02;;;;;;;18.45;8.10;;;14.40;88.10;;;;;;5055080;28;20034;-66
2021/09/08 02:33:28;;;;;;;10.30;7.28;;;14.40;88.20;;;;;;5073023;28;20438;-67
2021/09/08 02:35:54;;;;;;;11.73;6.95;;;14.40;88.30;;;;;;5072938;28;20478;-68
2021/09/08 02:38:19;;;;;;;15.63;7.20;;;14.30;88.50;;;;;;5073000;28;20028;-68
2021/09/08 02:40:46;;;;;;;9.32;5.95;;;14.30;89.00;;;;;;5054928;28;20078;-68
2021/09/08 02:43:11;;;;;;;10.77;6.28;;;14.30;89.20;;;;;;5072988;28;20032;-67
2021/09/08 02:45:37;;;;;;;17.25;7.38;;;14.30;89.40;;;;;;5054522;28;20035;-68
2021/09/08 02:48:03;;;;;;;15.13;6.28;;;14.30;88.90;;;;;;5073172;28;20487;-68
2021/09/08 02:50:29;;;;;;;12.93;6.10;;;14.30;87.70;;;;;;5072893;28;20107;-66
2021/09/08 02:52:55;;;;;;;13.90;6.50;;;14.20;87.80;;;;;;5054701;28;20139;-67
2021/09/08 02:55:21;;;;;;;10.65;5.93;;;14.20;87.50;;;;;;5072793;28;20033;-67
2021/09/08 02:57:47;;;;;;;15.80;5.82;;;14.20;87.70;;;;;;5072777;28;20028;-66
2021/09/08 03:00:13;;;;;;;9.15;5.80;;;14.10;87.90;;;;;;5054867;28;20038;-67
2021/09/08 03:02:39;;;;;;;8.90;5.07;;;14.10;87.80;;;;;;5054275;28;20099;-66
2021/09/08 03:05:06;;;;;;;7.43;5.28;;;14.10;87.50;;;;;;5072441;28;20060;-67
2021/09/08 03:07:32;;;;;;;10.55;5.53;;;14.00;87.30;;;;;;5072404;28;20024;-65
2021/09/08 03:09:57;;;;;;;11.02;6.32;;;14.00;87.40;;;;;;5072654;28;20047;-65
2021/09/08 03:12:23;;;;;;;11.27;5.43;;;13.90;87.50;;;;;;5054662;28;20032;-67
2021/09/08 03:14:49;;;;;;;11.00;5.50;;;13.80;87.40;;;;;;5054540;28;20152;-67
2021/09/08 03:17:15;;;;;;;17.70;6.45;;;13.80;87.60;;;;;;5072545;28;20040;-67
2021/09/08 03:19:41;;;;;;;7.78;5.35;;;13.70;87.50;;;;;;5072524;28;20373;-68
2021/09/08 03:22:07;;;;;;;15.38;6.25;;;13.70;87.70;;;;;;5054497;28;20032;-68
2021/09/08 03:24:33;;;;;;;9.50;5.47;;;13.60;87.60;;;;;;5072834;28;20136;-68
2021/09/08 03:26:58;;;;;;;9.30;5.60;;;13.60;88.10;;;;;;5054536;28;20500;-68
2021/09/08 03:29:24;;;;;;;10.63;6.00;;;13.60;88.20;;;;;;5054430;28;20031;-65
2021/09/08 03:31:50;;;;;;;15.07;5.40;;;13.50;88.90;;;;;;5072543;28;20465;-66
2021/09/08 03:34:16;;;;;;;13.10;5.18;;;13.50;89.30;;;;;;5072412;28;20029;-65
2021/09/08 03:36:42;;;;;;;14.27;5.47;;;13.50;88.90;;;;;;5072477;28;20029;-66
2021/09/08 03:39:15;;;;;;;17.23;5.57;;;13.50;89.60;;;;;;5072598;28;20457;-69
2021/09/08 03:41:41;;;;;;;7.35;5.07;;;13.60;89.50;;;;;;5076023;28;20078;-67
2021/09/08 03:44:07;;;;;;;12.85;5.50;;;13.60;90.00;;;;;;5075986;28;20032;-67
2021/09/08 03:46:33;;;;;;;7.93;5.03;;;13.60;88.30;;;;;;5075650;28;20032;-66
2021/09/08 03:48:59;;;;;;;10.15;5.03;;;13.70;88.20;;;;;;5058187;28;20031;-66
2021/09/08 03:51:25;;;;;;;9.07;5.32;;;13.60;87.80;;;;;;5075865;28;20037;-68
2021/09/08 03:53:51;;;;;;;9.88;5.28;;;13.60;88.00;;;;;;5075539;28;20024;-65
2021/09/08 03:56:16;;;;;;;14.73;5.55;;;13.70;88.00;;;;;;5075697;28;20036;-68
2021/09/08 03:58:42;;;;;;;11.55;5.10;;;13.60;88.50;;;;;;5075468;28;20390;-68
2021/09/08 04:01:09;;;;;;;9.43;5.60;;;13.60;88.00;;;;;;5057472;28;20033;-66
2021/09/08 04:03:35;;;;;;;19.60;5.80;;;13.50;88.40;;;;;;5075677;28;20476;-68
2021/09/08 04:06:00;;;;;;;11.25;5.72;;;13.50;88.50;;;;;;5075698;28;20028;-67
2021/09/08 04:08:26;;;;;;;16.25;6.43;;;13.40;89.80;;;;;;5057505;28;20107;-67
2021/09/08 04:10:53;;;;;;;12.45;5.15;;;13.20;90.20;;;;;;5075189;28;20110;-65
2021/09/08 04:13:19;;;;;;;8.43;5.57;;;13.10;90.40;;;;;;5075437;28;20024;-68
2021/09/08 04:15:45;;;;;;;13.32;6.18;;;13.00;90.50;;;;;;5075658;28;20039;-68
2021/09/08 04:18:11;;;;;;;21.77;7.80;;;12.90;90.80;;;;;;5057098;28;20397;-66
2021/09/08 04:20:37;;;;;;;22.40;8.73;;;12.80;90.90;;;;;;5057295;28;20052;-68
2021/09/08 04:23:03;;;;;;;37.65;9.52;;;12.70;91.00;;;;;;5075016;28;20021;-67
2021/09/08 04:25:29;;;;;;;28.58;10.80;;;12.70;91.10;;;;;;5075275;28;20100;-65
2021/09/08 04:27:55;;;;;;;34.30;12.15;;;12.70;91.40;;;;;;5075204;28;20112;-67
2021/09/08 04:30:20;;;;;;;30.90;14.20;;;12.60;91.60;;;;;;5075145;28;20457;-67
2021/09/08 04:32:46;;;;;;;32.00;15.80;;;12.60;92.00;;;;;;5075110;28;20460;-64
2021/09/08 04:35:12;;;;;;;30.17;14.80;;;12.50;92.30;;;;;;5075356;28;20056;-67
2021/09/08 04:37:38;;;;;;;28.17;12.55;;;12.50;92.40;;;;;;5056907;28;20040;-65
2021/09/08 04:40:05;;;;;;;31.23;13.55;;;12.40;92.40;;;;;;5074998;28;20107;-67
2021/09/08 04:42:31;;;;;;;43.05;15.50;;;12.40;92.60;;;;;;5074861;28;20037;-68
2021/09/08 04:44:57;;;;;;;33.67;14.88;;;12.40;92.80;;;;;;5056919;28;20107;-65
2021/09/08 04:47:23;;;;;;;41.05;14.50;;;12.50;93.10;;;;;;5056789;28;20374;-65
2021/09/08 04:49:48;;;;;;;37.65;13.10;;;12.50;93.10;;;;;;5074971;28;20032;-66
2021/09/08 04:52:15;;;;;;;29.58;14.05;;;12.60;93.10;;;;;;5055644;28;20024;-65
2021/09/08 04:54:41;;;;;;;24.20;12.00;;;12.60;93.30;;;;;;5074775;28;20025;-67
2021/09/08 04:57:07;;;;;;;34.35;15.32;;;12.70;93.40;;;;;;5074537;28;20109;-68
2021/09/08 04:59:34;;;;;;;44.80;15.10;;;12.70;93.40;;;;;;5074292;28;20481;-67
2021/09/08 05:02:00;;;;;;;39.88;15.73;;;12.70;93.30;;;;;;5074141;28;20067;-68
2021/09/08 05:04:26;;;;;;;33.20;15.05;;;12.60;93.50;;;;;;5074326;28;20106;-68
2021/09/08 05:06:52;;;;;;;34.33;14.57;;;12.70;93.40;;;;;;5056359;28;20125;-65
2021/09/08 05:09:17;;;;;;;38.58;14.02;;;12.70;93.50;;;;;;5056415;28;20036;-65
2021/09/08 05:11:43;;;;;;;33.42;14.13;;;12.70;93.70;;;;;;5056337;28;20024;-65
2021/09/08 05:14:09;;;;;;;27.88;12.95;;;12.80;93.90;;;;;;5056159;28;20025;-65
2021/09/08 05:16:35;;;;;;;24.17;11.93;;;13.00;94.10;;;;;;5056232;28;20063;-65
2021/09/08 05:19:01;;;;;;;29.02;12.75;;;13.10;94.10;;;;;;5074155;28;20484;-65
2021/09/08 05:21:27;;;;;;;24.27;11.52;;;13.20;94.40;;;;;;5073845;28;20024;-66
2021/09/08 05:23:53;;;;;;;24.42;12.48;;;13.30;94.50;;;;;;5073947;28;20029;-65
2021/09/08 05:26:19;;;;;;;27.13;12.10;;;13.30;94.70;;;;;;5074019;28;20036;-65
2021/09/08 05:28:45;;;;;;;23.58;11.18;;;13.40;94.50;;;;;;5073884;28;20047;-65
2021/09/08 05:31:11;;;;;;;24.77;15.93;;;13.50;94.60;;;;;;5074105;28;20024;-65
2021/09/08 05:33:37;;;;;;;24.63;11.60;;;13.60;93.40;;;;;;5055772;28;20434;-66
2021/09/08 05:36:03;;;;;;;29.23;17.83;;;13.80;93.20;;;;;;5073467;28;20025;-66
2021/09/08 05:38:29;;;;;;;24.25;13.82;;;13.90;93.10;;;;;;5055598;28;20039;-67
2021/09/08 05:40:55;;;;;;;20.75;11.40;;;14.00;92.40;;;;;;5073538;28;20043;-66
2021/09/08 05:43:21;;;;;;;26.35;14.27;;;14.20;92.10;;;;;;5073522;28;20020;-67
2021/09/08 05:45:46;;;;;;;28.08;15.77;;;14.30;91.40;;;;;;5073511;28;20036;-67
2021/09/08 05:48:12;;;;;;;27.90;15.40;;;14.40;91.40;;;;;;5073481;28;20024;-67
2021/09/08 05:50:38;;;;;;;28.42;15.57;;;14.50;91.00;;;;;;5073485;28;20365;-67
2021/09/08 05:53:04;;;;;;;24.17;13.15;;;14.60;90.80;;;;;;5055415;28;20102;-67
2021/09/08 05:55:31;;;;;;;21.17;10.40;;;14.80;90.50;;;;;;5073343;28;20031;-66
2021/09/08 05:57:56;;;;;;;25.17;10.27;;;14.80;90.10;;;;;;5073081;28;20467;-67
2021/09/08 06:00:22;;;;;;;29.50;14.23;;;14.90;90.60;;;;;;5055123;28;20024;-67
2021/09/08 06:02:48;;;;;;;29.90;15.82;;;15.00;90.00;;;;;;5073128;28;20047;-67
2021/09/08 06:05:14;;;;;;;25.75;16.95;;;15.10;89.20;;;;;;5073203;28;20028;-68
2021/09/08 06:07:40;;;;;;;29.48;13.93;;;15.20;89.00;;;;;;5081206;28;20052;-68
2021/09/08 06:10:07;;;;;;;25.77;8.75;;;15.20;88.40;;;;;;5073157;28;20055;-68
2021/09/08 06:12:33;;;;;;;17.35;7.15;;;15.40;87.80;;;;;;5073186;28;20028;-67
2021/09/08 06:14:59;;;;;;;20.40;7.03;;;15.40;86.80;;;;;;5073151;28;20104;-68
2021/09/08 06:17:26;;;;;;;18.00;7.15;;;15.50;86.40;;;;;;5073073;28;20111;-68
2021/09/08 06:19:51;;;;;;;24.95;9.63;;;15.60;90.00;;;;;;5072706;28;20111;-67
2021/09/08 06:22:17;;;;;;;21.17;9.60;;;15.70;89.00;;;;;;5073300;28;20553;-67
2021/09/08 06:24:43;;;;;;;20.45;5.80;;;15.90;89.00;;;;;;5072878;28;20036;-67
2021/09/08 06:27:09;;;;;;;10.38;5.32;;;16.00;88.90;;;;;;5075715;28;20029;-67
2021/09/08 06:29:35;;;;;;;19.65;6.68;;;16.00;88.80;;;;;;5069655;28;20024;-67
2021/09/08 06:32:00;;;;;;;16.70;5.35;;;16.10;90.20;;;;;;5092885;28;20032;-67
2021/09/08 06:34:26;;;;;;;13.65;5.80;;;16.20;88.90;;;;;;5074772;28;20035;-67
2021/09/08 06:36:53;;;;;;;9.07;4.45;;;16.30;87.70;;;;;;5074628;28;20028;-68
2021/09/08 06:39:21;;;;;;;15.80;5.45;;;16.40;87.10;;;;;;5092809;28;20491;-67
2021/09/08 06:41:48;;;;;;;16.40;4.72;;;16.50;85.40;;;;;;5092911;28;20121;-68
2021/09/08 06:44:15;;;;;;;13.88;4.55;;;16.60;88.40;;;;;;5092718;28;20027;-67
2021/09/08 06:46:41;;;;;;;19.50;5.20;;;;;;;;;;5092692;28;20024;-68
2021/09/08 06:49:07;;;;;;;13.48;4.25;;;16.70;84.30;;;;;;5092789;28;20027;-68
2021/09/08 06:51:33;;;;;;;10.52;4.10;;;16.90;86.50;;;;;;5074425;28;20028;-68
2021/09/08 06:53:59;;;;;;;10.13;4.38;;;17.00;85.30;;;;;;5092713;28;20028;-69
2021/09/08 06:56:25;;;;;;;15.68;3.85;;;17.10;86.40;;;;;;5074547;28;20778;-68
2021/09/08 06:58:50;;;;;;;10.43;3.92;;;17.20;83.60;;;;;;5092925;28;20032;-68
2021/09/08 07:01:16;;;;;;;15.70;4.13;;;17.30;84.60;;;;;;5067510;28;20560;-66
2021/09/08 07:03:42;;;;;;;13.80;4.20;;;17.40;84.10;;;;;;5052473;28;20025;-69
2021/09/08 07:06:08;;;;;;;17.98;4.25;;;17.50;82.70;;;;;;5049580;28;20033;-69
2021/09/08 07:08:34;;;;;;;11.77;3.60;;;17.60;83.90;;;;;;5031154;28;20045;-70
2021/09/08 07:10:59;;;;;;;8.02;3.58;;;17.70;82.40;;;;;;5032091;28;20465;-68
2021/09/08 07:13:25;;;;;;;16.48;4.43;;;17.80;80.20;;;;;;5032211;28;20029;-68
2021/09/08 07:15:51;;;;;;;8.07;3.47;;;17.90;81.10;;;;;;5034429;28;20045;-68
2021/09/08 07:18:17;;;;;;;24.70;4.65;;;;;;;;;;5034987;28;20033;-68
2021/09/08 07:20:43;;;;;;;9.75;3.22;;;;;;;;;;5036278;28;20057;-69
2021/09/08 07:23:10;;;;;;;12.48;4.30;;;;;;;;;;5034885;28;20026;-69
2021/09/08 07:25:36;;;;;;;8.27;3.85;;;18.30;78.60;;;;;;5034849;28;20029;-67
2021/09/08 07:28:03;;;;;;;13.50;3.70;;;18.40;78.30;;;;;;5034770;28;20033;-69
2021/09/08 07:30:29;;;;;;;7.68;3.50;;;18.60;78.00;;;;;;5034770;28;20470;-69
2021/09/08 07:32:55;;;;;;;13.88;3.42;;;18.70;77.00;;;;;;5034105;28;20021;-69
2021/09/08 07:35:21;;;;;;;6.88;2.92;;;18.80;77.60;;;;;;5034302;28;20040;-69
2021/09/08 07:37:47;;;;;;;9.20;3.40;;;18.90;77.00;;;;;;5034854;28;20525;-71
2021/09/08 07:40:13;;;;;;;8.80;3.60;;;19.00;77.40;;;;;;5034795;28;20030;-72
2021/09/08 07:42:39;;;;;;;10.88;4.07;;;19.10;75.80;;;;;;5033779;28;20033;-71
2021/09/08 07:45:06;;;;;;;7.72;3.13;;;19.10;76.30;;;;;;5035485;28;20068;-69
2021/09/08 07:47:33;;;;;;;11.98;3.78;;;19.30;76.40;;;;;;5036029;28;20104;-70
2021/09/08 07:49:58;;;;;;;7.35;3.50;;;19.40;75.90;;;;;;5036572;28;20037;-71
2021/09/08 07:52:24;;;;;;;6.00;3.10;;;19.50;75.50;;;;;;5036588;28;20028;-69
2021/09/08 07:54:50;;;;;;;8.82;3.13;;;19.60;76.80;;;;;;5036121;28;20520;-71
2021/09/08 07:57:16;;;;;;;13.07;4.15;;;19.80;76.90;;;;;;5035959;28;20476;-69
2021/09/08 07:59:42;;;;;;;10.20;3.22;;;20.00;75.80;;;;;;5036674;28;20033;-69
2021/09/08 08:02:08;;;;;;;7.53;3.50;;;20.20;76.00;;;;;;5057637;28;20086;-67
2021/09/08 08:04:33;;;;;;;10.52;3.35;;;20.30;74.40;;;;;;5058806;28;20028;-69
2021/09/08 08:06:59;;;;;;;7.72;3.45;;;20.40;73.90;;;;;;5075488;28;20116;-69
2021/09/08 08:09:25;;;;;;;9.82;3.78;;;20.60;73.40;;;;;;5075226;28;20111;-69
2021/09/08 08:11:51;;;;;;;5.88;3.40;;;20.80;73.40;;;;;;5057142;28;20020;-70
2021/09/08 08:14:17;;;;;;;9.25;3.13;;;21.00;73.00;;;;;;5057180;28;20046;-68
2021/09/08 08:16:43;;;;;;;5.85;2.78;;;21.30;71.30;;;;;;5057073;28;20028;-69
2021/09/08 08:19:10;;;;;;;13.27;10.63;;;21.50;71.40;;;;;;5075047;28;20028;-68
2021/09/08 08:21:36;;;;;;;5.20;3.40;;;21.70;76.30;;;;;;5057047;28;20078;-68
2021/09/08 08:24:02;;;;;;;15.13;4.40;;;21.90;72.60;;;;;;5073631;28;20625;-67
2021/09/08 08:26:28;;;;;;;8.15;2.88;;;22.00;71.10;;;;;;5074311;28;20060;-69
2021/09/08 08:28:54;;;;;;;7.60;2.83;;;22.20;71.00;;;;;;5074400;28;20048;-68
2021/09/08 08:31:20;;;;;;;7.80;2.97;;;22.40;69.20;;;;;;5074626;28;20021;-71
2021/09/08 08:33:48;;;;;;;8.02;2.90;;;22.60;70.60;;;;;;5074883;28;20052;-69
2021/09/08 08:36:15;;;;;;;8.07;2.90;;;22.80;69.50;;;;;;5056389;28;20427;-70
2021/09/08 08:38:42;;;;;;;5.90;3.03;;;23.00;69.70;;;;;;5074553;28;20038;-70
2021/09/08 08:41:08;;;;;;;16.77;3.10;;;23.10;67.60;;;;;;5056352;28;20040;-69
2021/09/08 08:43:34;;;;;;;6.07;2.92;;;23.30;67.10;;;;;;5074690;28;20134;-70
2021/09/08 08:46:01;;;;;;;10.82;2.70;;;;;;;;;;5056608;28;20032;-69
2021/09/08 08:48:27;;;;;;;5.55;3.13;;;;;;;;;;5056602;28;20052;-71
2021/09/08 08:50:54;;;;;;;8.02;2.53;;;;;;;;;;5074563;28;20024;-71
2021/09/08 08:53:20;;;;;;;7.70;2.83;;;;;;;;;;5074757;28;20039;-71
2021/09/08 08:55:46;;;;;;;15.07;2.80;;;;;;;;;;5074085;28;20483;-70
2021/09/08 08:58:12;;;;;;;11.30;3.00;;;;;;;;;;5074379;28;20027;-70
2021/09/08 09:00:40;;;;;;;9.48;2.20;;;;;;;;;;5074751;28;20020;-72
2021/09/08 09:03:05;;;;;;;4.35;2.00;;;23.40;66.40;;;;;;5073801;28;20210;-72
2021/09/08 09:05:36;;;;;;;11.68;3.03;;;24.70;63.50;;;;;;5056220;28;20056;-69
2021/09/08 09:08:04;;;;;;;8.33;2.70;;;24.70;62.00;;;;;;5056335;28;20032;-72
2021/09/08 09:10:30;;;;;;;8.45;2.55;;;24.70;60.80;;;;;;5073957;28;20253;-71
2021/09/08 09:12:56;;;;;;;6.57;2.70;;;24.60;60.70;;;;;;5056032;28;20024;-71
2021/09/08 09:15:23;;;;;;;10.30;2.42;;;24.80;60.90;;;;;;5055997;28;20029;-73
2021/09/08 09:17:50;;;;;;;7.05;2.88;;;25.00;60.40;;;;;;5073824;28;20115;-71
2021/09/08 09:20:19;;;;;;;7.03;2.42;;;25.00;60.00;;;;;;5074174;28;20033;-71
2021/09/08 09:22:49;;;;;;;10.80;3.30;;;25.10;60.50;;;;;;5073791;28;20032;-70
2021/09/08 09:25:18;;;;;;;5.75;3.05;;;25.20;60.10;;;;;;5055794;28;20051;-72
2021/09/08 09:27:57;;;;;;;11.45;3.30;;;25.40;61.00;;;;;;5073971;28;20035;-71
2021/09/08 09:30:25;;;;;;;39.47;3.90;;;25.70;60.90;;;;;;5073905;28;20025;-72
2021/09/08 09:32:52;;;;;;;15.85;2.13;;;25.70;59.10;;;;;;5074009;28;20075;-72
2021/09/08 09:35:21;;;;;;;5.78;2.22;;;25.90;59.30;;;;;;5073757;28;20081;-70
2021/09/08 09:37:56;;;;;;;6.97;2.45;;;26.10;59.10;;;;;;5072850;28;20081;-68
2021/09/08 09:40:33;;;;;;;5.95;2.30;;;26.20;58.30;;;;;;5073706;28;20028;-67
2021/09/08 09:43:04;;;;;;;13.00;2.63;;;26.30;56.40;;;;;;5055651;28;20457;-69
2021/09/08 09:45:38;;;;;;;6.13;2.75;;;26.40;56.70;;;;;;5073530;28;20036;-67
2021/09/08 09:48:05;;;;;;;5.55;2.13;;;26.50;56.30;;;;;;5073558;28;20029;-73
2021/09/08 09:50:32;;;;;;;6.15;2.28;;;26.50;54.80;;;;;;5055412;28;20511;-73
2021/09/08 09:52:58;;;;;;;5.13;2.80;;;26.70;55.30;;;;;;5055342;28;20532;-72
2021/09/08 09:55:26;;;;;;;5.78;2.83;;;26.70;55.50;;;;;;5055394;28;20031;-71
2021/09/08 09:57:53;;;;;;;8.98;2.58;;;26.80;55.20;;;;;;5055170;28;20038;-71
2021/09/08 10:00:19;;;;;;;7.38;2.50;;;26.90;54.60;;;;;;5073015;28;20039;-71
2021/09/08 10:02:47;;;;;;;9.40;2.58;;;27.00;53.80;;;;;;5073287;28;20044;-72
2021/09/08 10:05:14;;;;;;;7.53;2.50;;;27.20;53.90;;;;;;5072965;28;20059;-71
2021/09/08 10:07:41;;;;;;;8.15;2.53;;;27.10;52.00;;;;;;5055157;28;20043;-70
2021/09/08 10:10:30;;;;;;;10.70;2.45;;;27.40;52.50;;;;;;5073145;28;20028;-69
2021/09/08 10:13:11;;;;;;;9.70;2.45;;;27.40;51.90;;;;;;5073064;28;20644;-68
2021/09/08 10:15:37;;;;;;;5.88;2.38;;;27.40;52.50;;;;;;5072956;28;20439;-72
2021/09/08 10:18:11;;;;;;;15.00;4.53;;;27.70;52.70;;;;;;5073166;28;20089;-70
2021/09/08 10:20:37;;;;;;;8.32;2.83;;;27.90;51.90;;;;;;5073374;28;20040;-70
2021/09/08 10:23:08;;;;;;;7.60;2.95;;;28.10;52.40;;;;;;5072812;28;20552;-70
2021/09/08 10:25:34;;;;;;;7.80;2.13;;;28.60;52.20;;;;;;5054388;28;20499;-70
2021/09/08 10:28:00;;;;;;;6.13;2.15;;;29.10;51.00;;;;;;5072739;28;20249;-71
2021/09/08 10:30:27;;;;;;;8.55;2.45;;;;;;;;;;5072988;28;20029;-70
2021/09/08 10:32:54;;;;;;;7.63;2.10;;;29.70;49.20;;;;;;5054970;28;20024;-71
2021/09/08 10:35:21;;;;;;;7.65;2.40;;;30.40;53.70;;;;;;5072891;28;20029;-71
2021/09/08 10:37:49;;;;;;;4.70;2.45;;;;;;;;;;5072821;28;20481;-72
2021/09/08 10:40:17;;;;;;;10.88;2.33;;;30.90;49.00;;;;;;5073093;28;20493;-71
2021/09/08 10:42:56;;;;;;;6.35;2.30;;;31.80;46.70;;;;;;5054602;28;20070;-71
2021/09/08 10:45:27;;;;;;;7.30;3.38;;;32.00;45.30;;;;;;5054581;28;20025;-72
2021/09/08 10:47:54;;;;;;;11.60;3.05;;;;;;;;;;5072728;28;20083;-71
2021/09/08 10:50:40;;;;;;;7.10;2.53;;;;;;;;;;5074388;28;20128;-71
2021/09/08 10:53:24;;;;;;;9.68;3.03;;;32.20;45.80;;;;;;5076877;28;20085;-71
2021/09/08 10:55:52;;;;;;;8.70;2.72;;;;;;;;;;5058632;28;20037;-71
2021/09/08 10:58:18;;;;;;;8.38;3.05;;;34.00;42.80;;;;;;5076702;28;20394;-71
2021/09/08 11:00:46;;;;;;;5.78;2.42;;;35.30;42.50;;;;;;5076526;28;20431;-71
2021/09/08 11:03:14;;;;;;;9.52;2.88;;;35.30;41.20;;;;;;5076148;28;20105;-72
2021/09/08 11:05:58;;;;;;;8.77;2.95;;;35.80;41.50;;;;;;5076587;28;20036;-71
2021/09/08 11:08:26;;;;;;;8.43;2.60;;;36.00;41.40;;;;;;5076769;28;20033;-71
2021/09/08 11:11:06;;;;;;;10.85;2.90;;;36.20;41.20;;;;;;5076506;28;20521;-73
2021/09/08 11:13:32;;;;;;;8.98;2.55;;;36.60;40.30;;;;;;5058584;28;20020;-71
2021/09/08 11:15:58;;;;;;;17.40;2.55;;;37.00;40.50;;;;;;5076393;28;20043;-71
2021/09/08 11:18:37;;;;;;;7.35;2.38;;;37.80;39.70;;;;;;5076474;28;20025;-71
2021/09/08 11:21:04;;;;;;;8.43;2.67;;;38.30;39.20;;;;;;5076389;28;20028;-72
2021/09/08 11:23:31;;;;;;;7.28;2.58;;;38.70;39.20;;;;;;5076303;28;20032;-72
2021/09/08 11:26:08;;;;;;;6.97;2.30;;;39.00;38.30;;;;;;5076129;28;20029;-71
2021/09/08 11:28:35;;;;;;;8.65;2.47;;;39.30;39.30;;;;;;5076071;28;20082;-72
2021/09/08 11:31:17;;;;;;;8.82;2.40;;;39.40;38.50;;;;;;5076175;28;20028;-71
2021/09/08 11:33:43;;;;;;;9.55;2.60;;;38.70;38.00;;;;;;5075899;28;20020;-73
2021/09/08 11:36:15;;;;;;;12.68;2.83;;;37.30;39.40;;;;;;5076057;28;20032;-72
2021/09/08 11:38:47;;;;;;;7.00;2.58;;;35.90;40.40;;;;;;5076105;28;20461;-72
2021/09/08 11:41:14;;;;;;;2.95;2.22;;;35.10;41.70;;;;;;5075987;28;20017;-74
2021/09/08 11:43:48;;;;;;;8.15;2.67;;;35.30;42.30;;;;;;5075981;28;20020;-73
2021/09/08 11:46:31;;;;;;;4.85;2.33;;;35.30;41.50;;;;;;5058036;28;20133;-73
2021/09/08 11:49:05;;;;;;;10.25;2.63;;;34.30;42.60;;;;;;5075934;28;20032;-74
2021/09/08 11:51:36;;;;;;;12.80;2.67;;;35.30;42.30;;;;;;5075803;28;20024;-73
2021/09/08 11:54:04;;;;;;;3.58;2.42;;;36.40;41.30;;;;;;5075615;28;20394;-73
2021/09/08 11:56:32;;;;;;;8.88;2.65;;;37.30;39.40;;;;;;5075701;28;20048;-73
2021/09/08 11:59:00;;;;;;;7.47;2.60;;;37.70;39.50;;;;;;5075736;28;20028;-75
2021/09/08 12:01:33;;;;;;;5.30;2.22;;;37.60;39.80;;;;;;5075008;28;20051;-72
2021/09/08 12:04:01;;;;;;;8.93;2.80;;;37.90;39.90;;;;;;5075776;28;20074;-74
2021/09/08 12:06:32;;;;;;;5.35;2.40;;;38.40;39.70;;;;;;5075542;28;20033;-74
2021/09/08 12:09:11;;;;;;;6.28;2.40;;;38.70;38.80;;;;;;5075567;28;20111;-74
2021/09/08 12:11:42;;;;;;;9.00;2.50;;;39.30;38.00;;;;;;5075855;28;20060;-73
2021/09/08 12:14:32;;;;;;;5.20;2.40;;;40.20;37.90;;;;;;5075553;28;20032;-74
2021/09/08 12:17:03;;;;;;;4.60;2.50;;;40.90;37.90;;;;;;5075255;28;20044;-75
2021/09/08 12:19:33;;;;;;;6.00;2.38;;;41.40;37.50;;;;;;5075277;28;20028;-74
2021/09/08 12:22:23;;;;;;;11.77;2.58;;;41.80;37.50;;;;;;5074886;28;20409;-75
2021/09/08 12:24:59;;;;;;;9.48;2.92;;;41.90;36.50;;;;;;5075540;28;20024;-74
2021/09/08 12:27:25;;;;;;;6.07;2.53;;;41.60;35.70;;;;;;5075192;28;20052;-74
2021/09/08 12:29:52;;;;;;;8.88;2.15;;;41.90;36.60;;;;;;5075137;28;20481;-73
2021/09/08 12:32:18;;;;;;;4.88;2.00;;;40.70;35.90;;;;;;5074887;28;20420;-72
2021/09/08 12:34:51;;;;;;;4.13;2.33;;;39.00;37.00;;;;;;5074707;28;20025;-72
2021/09/08 12:37:18;;;;;;;3.28;2.28;;;37.80;38.10;;;;;;5056921;28;20070;-72
2021/09/08 12:39:49;;;;;;;6.82;2.75;;;37.90;38.60;;;;;;5075013;28;20036;-71
2021/09/08 12:42:20;;;;;;;4.45;2.10;;;39.40;37.00;;;;;;5074933;28;20024;-73
2021/09/08 12:44:47;;;;;;;10.82;2.58;;;40.60;37.10;;;;;;5074887;28;20039;-72